Terminal Aerodrome Forecast
Issued by NWS

Home | Current Version | Previous Version | Text Only | Print | Product List | Glossary On
Versions: 1 2 3 4 5 6 7 8 9 10 11 12
000
FTAK31 PANC 222325
TAFAHO
TAF
PAHO 222325Z 2300/2324 23006KT P6SM SCT050
     FM231200 08010KT P6SM SCT045 BKN090
     FM232300 13007KT 3SM -SN BKN030=

USA.gov is the U.S. government's official web portal to all federal, state and local government web resources and services.